Time;durP1;ratioP1;P1;durP2;ratioP2;P2;SDS_P1;SDS_P2;PMS_P1;PMS_P2;Temp;Humidity;BMP_temperature;BMP_pressure;BME280_temperature;BME280_humidity;BME280_pressure;Samples;Min_cycle;Max_cycle;Signal;HPM_P1;HPM_P2
2023/05/11 00:02:22;;;;;;;6.60;4.00;;;;;;;12.49;59.29;100602.23;105835;1250;74673;-59
2023/05/11 00:04:50;;;;;;;7.10;4.10;;;;;;;12.42;59.69;100605.70;105827;1251;82530;-60
2023/05/11 00:07:19;;;;;;;4.80;3.60;;;;;;;12.33;60.02;100604.84;105782;1253;73999;-60
2023/05/11 00:09:47;;;;;;;11.10;4.00;;;;;;;12.26;60.24;100601.23;105955;1250;69186;-59
2023/05/11 00:12:16;;;;;;;7.10;3.90;;;;;;;12.19;60.45;100600.84;105863;1250;69116;-60
2023/05/11 00:14:45;;;;;;;6.50;4.10;;;;;;;12.13;60.87;100604.07;105800;1251;73883;-59
2023/05/11 00:17:13;;;;;;;5.50;3.70;;;;;;;12.07;61.27;100602.75;105844;1253;83676;-59
2023/05/11 00:19:42;;;;;;;5.40;3.60;;;;;;;12.02;61.18;100600.98;105774;1250;73715;-59
2023/05/11 00:22:10;;;;;;;5.30;4.10;;;;;;;12.01;61.62;100599.34;105756;1253;69198;-59
2023/05/11 00:24:39;;;;;;;5.70;4.20;;;;;;;11.98;61.91;100598.90;105971;1250;69115;-59
2023/05/11 00:27:07;;;;;;;6.10;3.90;;;;;;;11.97;61.47;100595.42;105799;1251;73821;-60
2023/05/11 00:29:35;;;;;;;6.70;4.20;;;;;;;11.99;61.79;100596.74;105646;1254;83315;-59
2023/05/11 00:32:04;;;;;;;8.70;3.90;;;;;;;11.99;61.81;100597.98;105922;1251;73736;-59
2023/05/11 00:34:32;;;;;;;5.40;3.70;;;;;;;11.98;61.52;100594.70;105826;1249;69179;-59
2023/05/11 00:37:01;;;;;;;6.30;4.20;;;;;;;11.97;61.59;100592.44;105837;1253;69112;-60
2023/05/11 00:39:30;;;;;;;5.70;4.10;;;;;;;11.95;61.72;100598.83;105676;1251;74688;-59
2023/05/11 00:41:59;;;;;;;6.30;4.30;;;;;;;11.93;61.74;100602.42;105778;1253;83197;-59
2023/05/11 00:44:28;;;;;;;6.00;3.80;;;;;;;11.90;62.14;100606.05;105799;1253;73783;-60
2023/05/11 00:46:57;;;;;;;7.90;4.20;;;;;;;11.83;62.39;100608.90;105649;1251;69217;-60
2023/05/11 00:49:25;;;;;;;4.70;3.70;;;;;;;11.77;62.33;100611.41;105947;1253;69221;-60
2023/05/11 00:51:54;;;;;;;6.80;3.70;;;;;;;11.73;62.44;100611.23;105689;1256;73970;-59
2023/05/11 00:54:22;;;;;;;4.70;3.90;;;;;;;11.69;62.30;100608.38;105783;1256;83734;-60
2023/05/11 00:56:50;;;;;;;5.70;3.90;;;;;;;11.67;62.63;100608.98;105757;1249;72863;-60
2023/05/11 00:59:19;;;;;;;7.50;3.70;;;;;;;11.65;62.75;100611.35;105778;1251;69171;-59
2023/05/11 01:01:47;;;;;;;6.60;4.10;;;;;;;11.61;62.69;100606.09;105791;1253;69183;-59
2023/05/11 01:04:16;;;;;;;5.00;4.10;;;;;;;11.54;63.03;100607.89;105759;1251;74677;-59
2023/05/11 01:06:55;;;;;;;6.40;4.20;;;;;;;11.47;63.20;100607.64;105933;1253;83277;-59
2023/05/11 01:09:39;;;;;;;6.00;4.40;;;;;;;11.40;63.18;100606.52;105912;1251;72692;-59
2023/05/11 01:12:29;;;;;;;7.30;4.30;;;;;;;11.31;63.13;100607.02;105718;1251;69167;-59
2023/05/11 01:15:24;;;;;;;4.90;4.20;;;;;;;11.21;63.59;100607.05;105645;1251;69230;-59
2023/05/11 01:17:59;;;;;;;6.10;4.10;;;;;;;11.10;63.86;100611.47;105806;1253;74834;-60
2023/05/11 01:20:29;;;;;;;7.50;4.20;;;;;;;11.02;63.83;100611.23;105777;1251;82477;-59
2023/05/11 01:23:06;;;;;;;7.40;3.90;;;;;;;10.93;64.34;100612.23;105756;1253;74006;-59
2023/05/11 01:25:56;;;;;;;5.20;3.80;;;;;;;10.84;64.63;100611.83;105548;1250;69068;-59
2023/05/11 01:29:02;;;;;;;5.40;3.90;;;;;;;10.77;64.72;100617.15;105619;1255;69315;-59
2023/05/11 01:31:33;;;;;;;5.20;3.60;;;;;;;10.70;64.90;100618.44;105681;1250;74972;-59
2023/05/11 01:34:04;;;;;;;7.00;4.10;;;;;;;10.68;65.05;100617.09;105772;1251;83431;-59
2023/05/11 01:36:35;;;;;;;6.00;4.30;;;;;;;10.66;65.55;100613.84;105662;1250;73894;-59
2023/05/11 01:39:04;;;;;;;;;;;;;;;10.64;66.01;100619.86;105782;1251;69275;-60
2023/05/11 01:41:33;;;;;;;5.50;3.30;;;;;;;10.60;66.04;100613.18;105763;1253;69182;-60
2023/05/11 01:44:05;;;;;;;5.00;4.00;;;;;;;10.56;66.40;100613.86;105657;1256;73918;-59
2023/05/11 01:46:34;;;;;;;6.60;4.10;;;;;;;10.53;66.60;100615.70;105760;1250;83054;-59
2023/05/11 01:49:08;;;;;;;7.60;3.70;;;;;;;10.48;66.64;100619.15;105828;1251;73798;-59
2023/05/11 01:51:37;;;;;;;7.80;4.20;;;;;;;10.43;66.62;100623.16;105686;1251;69208;-59
2023/05/11 01:54:06;;;;;;;6.40;3.80;;;;;;;10.39;66.85;100621.23;105699;1250;69045;-59
2023/05/11 01:56:37;;;;;;;5.20;3.80;;;;;;;10.35;66.95;100626.95;105696;1253;75332;-59
2023/05/11 01:59:06;;;;;;;7.60;3.80;;;;;;;10.30;67.03;100627.61;105712;1253;82898;-59
2023/05/11 02:01:37;;;;;;;6.40;4.20;;;;;;;10.27;67.15;100627.35;105680;1254;73401;-59
2023/05/11 02:04:06;;;;;;;6.80;4.80;;;;;;;10.24;67.49;100625.49;105759;1250;69160;-59
2023/05/11 02:06:36;;;;;;;6.10;4.50;;;;;;;10.22;67.72;100626.10;105704;1251;69183;-59
2023/05/11 02:09:06;;;;;;;6.10;4.40;;;;;;;10.21;67.65;100629.46;105728;1253;75026;-59
2023/05/11 02:11:36;;;;;;;7.70;4.60;;;;;;;10.19;67.79;100631.27;105762;1251;83815;-59
2023/05/11 02:14:05;;;;;;;7.20;5.20;;;;;;;10.19;67.98;100634.23;105789;1249;73531;-59
2023/05/11 02:16:34;;;;;;;6.90;4.70;;;;;;;10.19;68.27;100631.44;105752;1251;69020;-59
2023/05/11 02:19:05;;;;;;;7.10;4.90;;;;;;;10.19;68.24;100632.99;105663;1253;69182;-59
2023/05/11 02:21:36;;;;;;;7.70;4.70;;;;;;;10.19;68.44;100632.83;105765;1251;73978;-59
2023/05/11 02:24:05;;;;;;;7.20;4.40;;;;;;;10.21;68.48;100634.70;105752;1251;83557;-59
2023/05/11 02:26:34;;;;;;;6.00;4.60;;;;;;;10.22;68.76;100633.09;105527;1253;72822;-60
2023/05/11 02:29:02;;;;;;;6.70;4.70;;;;;;;10.23;69.10;100634.43;105741;1253;69066;-61
2023/05/11 02:31:35;;;;;;;8.10;4.90;;;;;;;10.26;69.17;100637.17;105654;1255;69180;-61
2023/05/11 02:34:09;;;;;;;7.90;5.20;;;;;;;10.29;69.28;100638.50;105868;1251;74771;-61
2023/05/11 02:36:38;;;;;;;7.70;4.50;;;;;;;10.31;69.56;100638.79;105605;1251;83633;-61
2023/05/11 02:39:08;;;;;;;7.80;4.60;;;;;;;10.33;69.68;100638.73;105667;1250;73449;-61
2023/05/11 02:41:41;;;;;;;6.10;4.50;;;;;;;10.34;69.94;100638.14;105649;1252;69070;-61
2023/05/11 02:44:13;;;;;;;7.00;4.60;;;;;;;10.35;69.89;100633.58;105769;1253;69718;-61
2023/05/11 02:46:46;;;;;;;6.30;4.20;;;;;;;10.36;69.84;100635.11;105641;1252;75129;-61
2023/05/11 02:49:15;;;;;;;6.20;4.50;;;;;;;10.37;69.77;100638.22;105659;1250;83805;-61
2023/05/11 02:51:44;;;;;;;7.00;4.60;;;;;;;10.39;69.83;100638.70;105637;1254;73090;-61
2023/05/11 02:54:14;;;;;;;7.60;4.70;;;;;;;10.39;69.78;100639.91;105526;1251;69147;-61
2023/05/11 02:56:45;;;;;;;7.60;4.50;;;;;;;10.41;69.99;100639.48;105556;1256;69147;-61
2023/05/11 02:59:14;;;;;;;7.80;4.40;;;;;;;10.42;69.82;100636.14;105773;1251;74989;-61
2023/05/11 03:01:43;;;;;;;6.70;4.20;;;;;;;10.42;69.83;100634.40;105625;1251;82487;-61
2023/05/11 03:04:12;;;;;;;7.50;5.00;;;;;;;10.42;70.12;100629.16;105666;1252;72421;-61
2023/05/11 03:06:40;;;;;;;6.00;4.60;;;;;;;10.43;69.91;100629.46;105746;1252;69195;-61
2023/05/11 03:09:09;;;;;;;7.40;4.50;;;;;;;10.41;69.61;100633.88;105721;1253;69137;-61
2023/05/11 03:11:42;;;;;;;5.70;4.30;;;;;;;10.41;69.86;100633.70;105629;1253;75314;-61
2023/05/11 03:14:10;;;;;;;4.80;4.20;;;;;;;10.40;70.16;100634.98;105731;1251;82644;-61
2023/05/11 03:16:41;;;;;;;8.20;4.50;;;;;;;10.39;69.89;100636.59;105756;1253;72899;-61
2023/05/11 03:19:10;;;;;;;7.60;4.50;;;;;;;10.40;69.86;100639.17;105640;1251;69471;-61
2023/05/11 03:21:40;;;;;;;8.00;4.80;;;;;;;10.41;69.96;100635.63;105663;1251;69081;-61
2023/05/11 03:24:09;;;;;;;9.30;4.70;;;;;;;10.42;70.26;100640.51;105649;1256;75309;-61
2023/05/11 03:26:38;;;;;;;6.60;4.70;;;;;;;10.44;70.28;100641.32;105577;1257;83544;-61
2023/05/11 03:29:08;;;;;;;6.10;4.50;;;;;;;10.44;70.19;100642.52;105794;1253;74016;-61
2023/05/11 03:31:36;;;;;;;6.70;4.40;;;;;;;10.44;70.48;100647.08;105733;1249;69125;-61
2023/05/11 03:34:04;;;;;;;7.40;4.60;;;;;;;10.45;70.57;100645.48;105670;1253;69199;-61
2023/05/11 03:36:37;;;;;;;6.40;4.20;;;;;;;10.46;70.50;100641.25;105639;1250;73857;-61
2023/05/11 03:39:07;;;;;;;6.50;4.70;;;;;;;10.45;70.42;100642.86;105651;1251;83460;-61
2023/05/11 03:41:38;;;;;;;6.70;4.80;;;;;;;10.46;70.62;100642.99;105495;1250;73857;-61
2023/05/11 03:44:07;;;;;;;7.70;4.70;;;;;;;10.48;70.46;100640.84;105603;1256;69279;-61
2023/05/11 03:46:38;;;;;;;7.10;4.10;;;;;;;10.49;70.57;100642.19;105620;1255;69112;-61
2023/05/11 03:49:08;;;;;;;6.30;4.50;;;;;;;10.52;70.61;100640.38;105606;1251;73942;-61
2023/05/11 03:51:40;;;;;;;5.30;4.60;;;;;;;10.55;70.74;100642.73;105577;1256;83359;-61
2023/05/11 03:54:09;;;;;;;6.60;4.30;;;;;;;10.56;70.91;100642.85;105773;1251;74008;-61
2023/05/11 03:56:38;;;;;;;6.00;4.20;;;;;;;10.57;70.94;100647.54;105797;1251;69167;-61
2023/05/11 03:59:08;;;;;;;8.20;4.50;;;;;;;10.59;70.70;100646.79;105938;1251;69228;-61
2023/05/11 04:01:36;;;;;;;7.80;4.60;;;;;;;10.62;70.76;100648.43;105699;1254;73940;-61
2023/05/11 04:04:05;;;;;;;5.60;4.50;;;;;;;10.64;70.76;100653.26;105679;1250;83947;-61
2023/05/11 04:06:33;;;;;;;7.00;4.60;;;;;;;10.66;70.49;100652.66;105667;1250;73547;-61
2023/05/11 04:09:09;;;;;;;10.40;4.70;;;;;;;10.70;70.60;100655.30;105700;1251;69176;-61
2023/05/11 04:11:37;;;;;;;6.40;4.60;;;;;;;10.75;70.35;100653.77;105641;1256;69301;-61
2023/05/11 04:14:06;;;;;;;6.00;4.30;;;;;;;10.82;70.09;100653.17;105856;1250;74897;-61
2023/05/11 04:16:34;;;;;;;9.00;4.80;;;;;;;10.88;70.41;100651.90;105716;1253;83086;-61
2023/05/11 04:19:03;;;;;;;8.00;4.70;;;;;;;10.91;70.49;100652.15;106003;1253;73943;-61
2023/05/11 04:21:31;;;;;;;7.50;5.00;;;;;;;10.94;70.27;100653.44;105807;1251;69191;-61
2023/05/11 04:23:59;;;;;;;8.60;4.80;;;;;;;10.96;69.86;100658.45;105680;1250;69073;-61
2023/05/11 04:26:28;;;;;;;6.70;4.40;;;;;;;11.03;69.57;100655.25;105649;1253;74589;-61
2023/05/11 04:28:56;;;;;;;6.20;4.40;;;;;;;11.07;69.92;100655.61;105829;1253;83392;-61
2023/05/11 04:31:24;;;;;;;5.20;3.70;;;;;;;11.12;69.77;100658.27;105714;1251;72760;-61
2023/05/11 04:33:53;;;;;;;10.90;5.40;;;;;;;11.14;69.59;100656.40;105659;1251;69176;-61
2023/05/11 04:36:21;;;;;;;9.20;4.80;;;;;;;11.19;69.80;100657.15;105703;1253;69173;-61
2023/05/11 04:38:51;;;;;;;6.90;4.90;;;;;;;11.24;69.64;100661.66;105809;1250;75293;-61
2023/05/11 04:41:21;;;;;;;6.40;4.70;;;;;;;11.28;69.87;100659.23;105726;1250;82882;-61
2023/05/11 04:43:50;;;;;;;5.10;4.20;;;;;;;11.32;69.91;100660.51;105747;1251;74141;-61
2023/05/11 04:46:18;;;;;;;7.60;4.70;;;;;;;11.36;69.78;100659.30;105736;1253;69714;-61
2023/05/11 04:48:47;;;;;;;8.70;4.70;;;;;;;11.41;69.47;100666.99;105669;1256;69176;-61
2023/05/11 04:51:15;;;;;;;8.50;4.30;;;;;;;11.46;69.23;100667.35;105649;1251;74854;-61
2023/05/11 04:53:44;;;;;;;6.80;4.40;;;;;;;11.52;69.02;100667.83;105891;1253;83171;-61
2023/05/11 04:56:13;;;;;;;7.40;3.90;;;;;;;11.57;68.78;100670.45;105782;1251;73539;-61
2023/05/11 04:58:42;;;;;;;7.50;4.70;;;;;;;11.64;68.58;100670.57;105755;1251;69300;-61
2023/05/11 05:01:10;;;;;;;6.00;3.80;;;;;;;11.69;68.50;100670.70;105715;1253;69276;-61
2023/05/11 05:03:39;;;;;;;7.40;5.10;;;;;;;11.76;68.27;100668.33;105834;1250;73322;-61
2023/05/11 05:06:08;;;;;;;7.00;5.20;;;;;;;11.85;68.12;100671.71;105685;1255;83727;-61
2023/05/11 05:08:37;;;;;;;9.60;4.50;;;;;;;11.92;67.98;100673.55;105668;1254;72639;-61
2023/05/11 05:11:05;;;;;;;7.90;5.00;;;;;;;11.99;67.95;100671.88;105884;1251;69459;-59
2023/05/11 05:13:33;;;;;;;9.40;4.70;;;;;;;12.06;67.32;100676.36;105739;1250;68998;-59
2023/05/11 05:16:02;;;;;;;8.30;4.60;;;;;;;12.12;67.01;100680.33;105792;1251;74275;-60
2023/05/11 05:18:30;;;;;;;7.00;4.50;;;;;;;12.17;66.66;100676.63;105837;1251;84490;-60
2023/05/11 05:20:59;;;;;;;7.90;4.90;;;;;;;12.22;66.71;100683.42;105720;1251;73671;-57
2023/05/11 05:23:28;;;;;;;9.40;4.80;;;;;;;12.30;66.69;100680.51;105800;1251;69058;-59
2023/05/11 05:25:56;;;;;;;8.10;5.10;;;;;;;12.39;66.45;100682.94;106078;1251;69174;-61
2023/05/11 05:28:26;;;;;;;6.20;4.70;;;;;;;12.47;66.38;100680.50;105762;1251;74875;-61
2023/05/11 05:30:55;;;;;;;6.80;4.80;;;;;;;12.54;66.21;100679.69;105694;1256;83431;-60
2023/05/11 05:33:23;;;;;;;5.40;4.80;;;;;;;12.62;66.37;100685.16;105859;1253;73329;-60
2023/05/11 05:35:51;;;;;;;7.30;4.50;;;;;;;12.71;66.09;100682.70;105482;1253;176314;-59
2023/05/11 05:38:20;;;;;;;8.50;4.70;;;;;;;12.79;65.69;100686.39;105852;1251;69173;-60
2023/05/11 05:40:49;;;;;;;9.10;4.80;;;;;;;12.85;65.64;100692.27;105737;1253;74260;-60
2023/05/11 05:43:18;;;;;;;6.70;4.40;;;;;;;12.93;65.42;100694.02;105823;1253;83291;-59
2023/05/11 05:45:46;;;;;;;8.00;4.50;;;;;;;12.99;64.92;100690.97;105840;1251;73731;-58
2023/05/11 05:48:14;;;;;;;7.50;4.70;;;;;;;13.04;64.88;100693.92;105631;1255;69560;-59
2023/05/11 05:50:43;;;;;;;9.40;5.00;;;;;;;13.10;64.77;100692.44;105856;1249;69160;-59
2023/05/11 05:53:12;;;;;;;7.40;4.70;;;;;;;13.16;64.25;100692.34;105813;1250;74779;-59
2023/05/11 05:55:40;;;;;;;8.20;5.00;;;;;;;13.23;64.22;100691.02;105850;1253;83534;-60
2023/05/11 05:58:09;;;;;;;7.90;5.00;;;;;;;13.29;63.99;100693.91;105751;1253;72718;-59
2023/05/11 06:00:37;;;;;;;8.90;4.70;;;;;;;13.36;63.85;100696.05;105754;1249;69163;-59
2023/05/11 06:03:06;;;;;;;8.90;4.60;;;;;;;13.45;63.72;100697.65;105860;1249;68995;-59
2023/05/11 06:05:36;;;;;;;8.20;4.60;;;;;;;13.49;63.63;100700.24;105928;1253;75273;-60
2023/05/11 06:08:04;;;;;;;7.20;4.70;;;;;;;13.54;63.45;100702.52;105835;1251;83309;-59
2023/05/11 06:10:39;;;;;;;5.90;4.70;;;;;;;13.58;63.32;100697.38;106044;1250;73625;-60
2023/05/11 06:13:08;;;;;;;8.60;5.00;;;;;;;13.62;63.38;100700.20;105944;1253;69175;-60
2023/05/11 06:15:38;;;;;;;10.00;4.80;;;;;;;13.68;63.46;100705.05;105674;1254;69257;-60
2023/05/11 06:18:20;;;;;;;7.70;4.70;;;;;;;13.73;63.00;100704.77;105706;1253;73970;-60
2023/05/11 06:20:49;;;;;;;8.90;4.80;;;;;;;13.75;62.80;100706.79;105791;1255;83229;-60
2023/05/11 06:23:18;;;;;;;8.30;4.70;;;;;;;13.79;62.68;100708.92;105947;1251;73939;-60
2023/05/11 06:25:47;;;;;;;7.90;4.50;;;;;;;13.83;62.56;100711.88;105835;1253;69187;-60
2023/05/11 06:28:15;;;;;;;7.60;4.50;;;;;;;13.89;62.38;100710.59;105947;1251;69180;-60
2023/05/11 06:30:44;;;;;;;7.50;4.80;;;;;;;13.96;62.46;100707.28;105825;1253;75061;-60
2023/05/11 06:33:12;;;;;;;6.20;4.50;;;;;;;14.04;62.26;100709.16;105803;1256;83111;-60
2023/05/11 06:35:40;;;;;;;10.30;4.90;;;;;;;14.14;61.98;100710.46;105726;1251;73685;-61
2023/05/11 06:38:11;;;;;;;;;;;;;;;14.22;61.82;100710.95;105671;1254;69147;-61
2023/05/11 06:40:39;;;;;;;10.00;4.50;;;;;;;14.29;61.77;100712.05;105753;1253;69281;-62
2023/05/11 06:43:07;;;;;;;6.60;4.40;;;;;;;14.37;61.81;100711.14;105689;1255;73631;-62
2023/05/11 06:45:47;;;;;;;6.70;4.00;;;;;;;14.47;61.69;100711.53;105809;1253;83164;-62
2023/05/11 06:48:15;;;;;;;6.10;4.30;;;;;;;14.57;61.55;100711.46;105796;1250;72539;-61
2023/05/11 06:50:43;;;;;;;7.30;4.50;;;;;;;14.65;61.32;100713.68;105757;1254;69124;-62
2023/05/11 06:53:12;;;;;;;4.80;3.90;;;;;;;14.73;61.10;100711.35;106023;1251;69176;-61
2023/05/11 06:55:41;;;;;;;11.70;4.80;;;;;;;14.82;61.00;100712.33;105698;1250;74821;-61
2023/05/11 06:58:09;;;;;;;8.20;4.00;;;;;;;14.92;60.90;100714.28;105844;1251;83897;-60
2023/05/11 07:00:38;;;;;;;5.80;4.00;;;;;;;15.02;60.77;100716.60;105929;1253;71764;-61
2023/05/11 07:03:06;;;;;;;5.80;4.10;;;;;;;15.12;60.40;100708.00;105972;1251;69103;-64
2023/05/11 07:05:36;;;;;;;9.40;4.60;;;;;;;15.20;60.51;100714.10;105844;1253;69179;-64
2023/05/11 07:08:04;;;;;;;6.90;4.60;;;;;;;15.30;60.24;100712.52;105770;1253;73859;-64
2023/05/11 07:10:33;;;;;;;6.90;4.30;;;;;;;15.41;60.03;100709.66;105794;1251;82494;-64
2023/05/11 07:13:01;;;;;;;13.80;4.70;;;;;;;15.51;59.71;100712.86;105741;1251;73623;-64
2023/05/11 07:15:29;;;;;;;26.50;5.80;;;;;;;15.59;59.45;100708.19;105766;1251;69066;-64
2023/05/11 07:17:57;;;;;;;25.20;4.90;;;;;;;15.68;59.25;100711.23;105771;1253;69181;-64
2023/05/11 07:20:26;;;;;;;26.50;6.40;;;;;;;15.79;59.12;100710.13;105844;1251;74883;-64
2023/05/11 07:22:58;;;;;;;70.40;9.60;;;;;;;15.92;58.91;100709.64;105801;1251;83402;-64
2023/05/11 07:25:26;;;;;;;10.40;4.20;;;;;;;16.05;58.87;100712.46;105742;1250;72768;-64
2023/05/11 07:27:55;;;;;;;9.90;4.90;;;;;;;16.16;58.48;100713.96;105673;1251;69173;-63
2023/05/11 07:30:24;;;;;;;14.50;4.40;;;;;;;16.29;58.53;100707.44;105807;1253;69129;-64
2023/05/11 07:32:52;;;;;;;11.10;5.00;;;;;;;16.42;58.58;100709.02;105758;1249;74979;-64
2023/05/11 07:35:21;;;;;;;10.70;4.50;;;;;;;16.48;58.30;100714.27;105688;1253;83393;-65
2023/05/11 07:37:51;;;;;;;;;;;;;;;16.54;58.03;100718.70;105793;1251;74043;-63
2023/05/11 07:40:19;;;;;;;8.30;4.50;;;;;;;16.62;57.70;100713.13;105742;1249;69179;-63
2023/05/11 07:42:48;;;;;;;91.50;11.00;;;;;;;16.73;57.25;100715.32;105804;1250;69109;-63
2023/05/11 07:45:16;;;;;;;9.60;5.30;;;;;;;16.81;57.03;100709.80;105797;1250;75093;-63
2023/05/11 07:47:45;;;;;;;12.00;4.90;;;;;;;16.93;57.21;100710.86;105740;1250;82927;-63
2023/05/11 07:50:13;;;;;;;10.00;4.90;;;;;;;17.06;56.71;100711.67;105816;1251;73666;-63
2023/05/11 07:52:41;;;;;;;8.40;4.90;;;;;;;17.10;56.41;100714.63;105753;1251;69185;-63
2023/05/11 07:55:09;;;;;;;16.30;5.60;;;;;;;17.19;56.46;100719.55;105737;1250;69213;-63
2023/05/11 07:57:38;;;;;;;23.60;5.20;;;;;;;17.26;56.50;100721.79;105759;1251;73823;-63
2023/05/11 08:00:07;;;;;;;19.60;4.90;;;;;;;17.39;56.34;100722.22;105759;1253;83386;-63
2023/05/11 08:02:41;;;;;;;22.20;5.30;;;;;;;17.54;55.74;100720.13;105679;1250;73681;-63
2023/05/11 08:05:10;;;;;;;13.20;5.20;;;;;;;17.65;55.43;100719.64;105805;1250;69025;-63
2023/05/11 08:07:38;;;;;;;14.70;5.40;;;;;;;17.76;55.13;100722.66;105750;1253;69189;-63
2023/05/11 08:10:08;;;;;;;;;;;;;;;17.82;54.45;100717.00;105777;1251;73822;-61
2023/05/11 08:12:37;;;;;;;24.30;5.80;;;;;;;17.83;54.69;100716.58;105749;1253;82249;-61
2023/05/11 08:15:05;;;;;;;75.00;8.90;;;;;;;17.97;54.88;100709.49;105772;1251;74022;-61
2023/05/11 08:17:35;;;;;;;23.70;5.90;;;;;;;18.13;54.70;100711.73;105805;1253;69140;-61
2023/05/11 08:20:05;;;;;;;7.70;4.00;;;;;;;18.18;54.24;100711.02;105772;1251;69077;-61
2023/05/11 08:22:33;;;;;;;4.50;3.30;;;;;;;18.16;54.02;100710.83;105754;1250;75036;-61
2023/05/11 08:25:02;;;;;;;5.70;3.40;;;;;;;18.16;53.66;100716.08;105834;1253;83319;-61
2023/05/11 08:27:30;;;;;;;6.80;3.30;;;;;;;18.21;53.61;100713.33;105812;1250;73742;-61
2023/05/11 08:29:59;;;;;;;4.80;3.30;;;;;;;18.27;53.34;100715.55;105713;1253;69179;-61
2023/05/11 08:32:28;;;;;;;8.60;3.50;;;;;;;18.37;53.20;100713.86;105776;1251;69061;-61
2023/05/11 08:34:57;;;;;;;5.80;3.70;;;;;;;18.51;53.22;100712.98;105742;1253;74888;-61
2023/05/11 08:37:25;;;;;;;8.80;3.80;;;;;;;18.66;53.38;100710.72;105856;1253;83352;-61
2023/05/11 08:39:53;;;;;;;5.50;3.90;;;;;;;18.81;53.51;100713.65;105759;1251;73579;-61
2023/05/11 08:42:23;;;;;;;8.30;4.20;;;;;;;19.03;53.39;100714.30;105736;1251;69159;-61
2023/05/11 08:44:55;;;;;;;5.80;3.70;;;;;;;19.23;53.02;100710.48;105770;1250;69076;-61
2023/05/11 08:47:23;;;;;;;4.80;3.40;;;;;;;19.39;52.34;100713.63;105738;1252;75097;-61
2023/05/11 08:49:52;;;;;;;6.50;4.00;;;;;;;19.47;51.85;100707.95;105765;1253;83399;-61
2023/05/11 08:52:20;;;;;;;5.70;3.60;;;;;;;19.51;51.71;100704.64;105644;1251;73203;-61
2023/05/11 08:54:49;;;;;;;5.10;3.90;;;;;;;19.56;51.57;100704.70;105749;1253;69195;-61
2023/05/11 08:57:18;;;;;;;6.30;3.90;;;;;;;19.60;51.63;100701.88;105778;1250;69167;-61
2023/05/11 08:59:47;;;;;;;4.90;4.30;;;;;;;19.69;51.42;100705.17;105819;1253;73573;-61
2023/05/11 09:02:17;;;;;;;6.60;3.80;;;;;;;19.76;51.07;100705.95;105826;1253;83543;-61
2023/05/11 09:04:46;;;;;;;7.80;3.80;;;;;;;19.85;51.05;100706.77;105739;1253;72716;-61
2023/05/11 09:07:16;;;;;;;8.40;3.80;;;;;;;20.00;50.81;100703.69;105664;1251;69150;-61
2023/05/11 09:09:46;;;;;;;3.80;3.20;;;;;;;20.10;50.34;100700.70;105762;1253;69177;-61
2023/05/11 09:12:15;;;;;;;6.10;3.80;;;;;;;20.16;50.47;100703.25;105722;1251;73918;-61
2023/05/11 09:14:45;;;;;;;5.40;3.90;;;;;;;20.29;50.31;100702.15;105730;1253;83370;-61
2023/05/11 09:17:13;;;;;;;9.60;3.90;;;;;;;20.35;49.56;100701.39;105737;1251;73407;-61
2023/05/11 09:20:03;;;;;;;4.60;3.80;;;;;;;20.44;49.66;100700.12;105828;1253;69192;-61
2023/05/11 09:22:33;;;;;;;7.00;3.60;;;;;;;20.61;49.18;100699.52;105771;1253;69191;-61
2023/05/11 09:25:02;;;;;;;7.30;3.70;;;;;;;20.67;49.34;100697.11;105796;1251;74294;-61
2023/05/11 09:27:31;;;;;;;6.20;3.70;;;;;;;20.77;49.12;100695.30;105754;1253;83492;-61
2023/05/11 09:30:10;;;;;;;5.20;4.00;;;;;;;20.78;48.47;100697.17;105756;1251;73608;-61
2023/05/11 09:32:49;;;;;;;6.70;3.50;;;;;;;20.87;47.83;100694.70;105742;1253;69166;-62
2023/05/11 09:35:22;;;;;;;8.20;3.50;;;;;;;21.01;47.76;100696.33;105783;1253;69164;-61
2023/05/11 09:38:08;;;;;;;4.90;3.40;;;;;;;21.19;47.76;100692.06;105784;1253;75171;-61
2023/05/11 09:41:03;;;;;;;9.40;4.30;;;;;;;21.32;47.39;100691.23;105707;1251;82499;-61
2023/05/11 09:43:32;;;;;;;5.30;3.40;;;;;;;21.37;47.21;100683.95;105770;1253;73303;-62
2023/05/11 09:46:03;;;;;;;4.90;3.60;;;;;;;21.44;47.17;100682.19;105715;1250;69204;-62
2023/05/11 09:48:32;;;;;;;6.90;4.00;;;;;;;21.56;46.73;100682.65;105738;1252;69073;-62
2023/05/11 09:51:05;;;;;;;6.40;3.20;;;;;;;21.63;46.92;100682.98;105719;1251;74823;-62
2023/05/11 09:53:37;;;;;;;5.30;3.30;;;;;;;21.64;46.63;100683.83;105692;1251;82336;-62
2023/05/11 09:56:06;;;;;;;5.20;2.90;;;;;;;21.63;46.32;100684.57;105671;1251;72747;-62
2023/05/11 09:58:53;;;;;;;6.50;3.60;;;;;;;21.74;46.46;100684.09;105745;1253;69102;-62
2023/05/11 10:01:30;;;;;;;5.20;3.00;;;;;;;21.90;46.07;100681.72;105717;1253;69191;-62
2023/05/11 10:04:00;;;;;;;4.90;3.50;;;;;;;21.98;45.68;100679.13;105788;1253;74440;-62
2023/05/11 10:06:52;;;;;;;3.90;2.70;;;;;;;22.05;45.52;100677.14;105720;1254;83263;-62
2023/05/11 10:09:24;;;;;;;5.40;3.00;;;;;;;22.04;45.39;100675.39;105741;1251;73938;-62
2023/05/11 10:11:53;;;;;;;5.80;3.00;;;;;;;22.00;44.79;100674.52;105680;1250;69084;-63
2023/05/11 10:14:21;;;;;;;3.90;2.80;;;;;;;21.98;44.90;100674.34;105723;1251;69085;-64
2023/05/11 10:16:50;;;;;;;6.70;2.60;;;;;;;21.92;44.47;100671.11;105769;1250;74626;-63
2023/05/11 10:19:18;;;;;;;5.70;2.70;;;;;;;21.86;44.16;100670.84;105737;1254;83373;-63
2023/05/11 10:21:47;;;;;;;6.40;2.20;;;;;;;21.80;43.99;100670.83;105762;1251;72654;-63
2023/05/11 10:24:15;;;;;;;5.90;2.40;;;;;;;21.75;44.15;100669.75;105752;1250;69746;-63
2023/05/11 10:26:47;;;;;;;3.20;2.30;;;;;;;21.72;43.84;100675.19;105732;1254;69115;-63
2023/05/11 10:29:18;;;;;;;6.90;2.40;;;;;;;21.68;43.88;100666.41;105759;1251;75085;-63
2023/05/11 10:31:47;;;;;;;5.70;2.50;;;;;;;21.85;43.66;100662.34;105821;1253;83373;-63
2023/05/11 10:34:15;;;;;;;4.10;2.60;;;;;;;22.02;43.60;100661.23;105693;1251;72727;-63
2023/05/11 10:36:45;;;;;;;3.20;2.10;;;;;;;22.06;42.93;100661.42;105807;1253;69167;-63
2023/05/11 10:39:13;;;;;;;4.70;2.40;;;;;;;22.03;42.61;100662.88;105795;1253;69170;-64
2023/05/11 10:41:55;;;;;;;2.90;1.90;;;;;;;21.95;42.35;100663.71;105809;1253;74431;-63
2023/05/11 10:44:33;;;;;;;6.90;2.00;;;;;;;21.81;42.06;100662.70;105768;1253;83803;-63
2023/05/11 10:47:23;;;;;;;9.40;2.50;;;;;;;21.73;41.96;100665.52;105696;1250;73410;-63
2023/05/11 10:50:24;;;;;;;6.40;2.10;;;;;;;21.50;42.01;100669.26;105791;1251;69057;-63
2023/05/11 10:53:11;;;;;;;2.60;2.10;;;;;;;21.32;42.32;100670.08;105815;1253;69116;-63
2023/05/11 10:55:45;;;;;;;5.00;2.00;;;;;;;21.18;42.12;100671.36;105815;1253;74691;-63
2023/05/11 10:58:41;;;;;;;5.60;2.40;;;;;;;21.14;41.86;100671.98;105749;1250;82594;-63
2023/05/11 11:01:33;;;;;;;7.90;2.10;;;;;;;21.13;41.93;100666.92;105752;1253;72748;-63
2023/05/11 11:04:06;;;;;;;2.10;1.80;;;;;;;21.23;41.88;100665.86;105713;1253;69134;-63
2023/05/11 11:06:41;;;;;;;3.10;2.00;;;;;;;21.35;41.53;100665.98;105716;1251;69160;-64
2023/05/11 11:09:14;;;;;;;2.40;1.70;;;;;;;21.39;41.34;100664.97;105811;1251;74934;-63
2023/05/11 11:11:49;;;;;;;4.50;2.10;;;;;;;21.40;41.15;100663.84;105730;1251;83363;-63
2023/05/11 11:14:18;;;;;;;3.40;1.90;;;;;;;21.39;41.02;100663.20;105694;1253;73758;-63
2023/05/11 11:17:15;;;;;;;2.60;1.90;;;;;;;21.31;41.08;100662.50;105605;1252;69068;-64
2023/05/11 11:19:43;;;;;;;4.70;2.30;;;;;;;21.32;41.03;100667.23;105856;1254;69186;-62
2023/05/11 11:22:45;;;;;;;3.90;2.60;;;;;;;21.32;40.81;100664.71;105719;1253;74513;-63
2023/05/11 11:25:15;;;;;;;4.30;2.30;;;;;;;21.42;40.49;100658.86;105721;1253;83488;-63
2023/05/11 11:27:43;;;;;;;4.80;2.00;;;;;;;21.63;40.79;100660.26;105782;1254;73795;-63
2023/05/11 11:30:20;;;;;;;5.70;1.90;;;;;;;21.76;40.39;100658.10;105723;1254;69284;-63
2023/05/11 11:32:53;;;;;;;3.60;1.90;;;;;;;21.86;39.98;100662.88;105709;1252;69217;-63
2023/05/11 11:35:40;;;;;;;3.40;1.90;;;;;;;21.93;39.76;100662.63;105725;1249;75430;-63